Salinas Municipal Airport
KSNS : now visible

Airfield :











YOU CAN JOIN US ON...

 
LOGIN :

Register | Disclaimer

   EN    FR    IT 

 









Legend :    VFR   Marginal VFR   IFR   Intensive IFR   Very Intensive IFR
Visi :
Ceiling :
>= 8 km
>= 3000ft
5 to 8 km
1000 to 3000 ft
1500m to 5 km
500 to 1000 ft
800 to 1500m
200 to 500 ft
< 800m
< 200 ft
Symbols :   Thunderstorms  Fog  Heavy snow  Heavy precipitations  Wind > 20 kt






- Airport Elevation : 85 ft


KSNS - Salinas Municipal

CURRENT METAR :
  • 250153Z AUTO 33008KT 8SM OVC008 18/14 A3003 RMK AO2 SLP177 T01830144 TSNO

EXPIRED METARs :
  • 250053Z AUTO 33013KT 8SM OVC008 18/14 A3002 RMK AO2 SLP175 T01830144 TSNO
  • 250000Z AUTO 33014KT 9SM BKN009 19/14 A3002 RMK AO2 T01940144 TSNO
  • 242343Z AUTO 34014KT 10SM FEW009 19/14 A3002 RMK AO2 T01940144 TSNO

TAF KSNS
Valid from the 25 at 00:00 until the 26 at 00:00 UTC


242336Z 2500/2524 34017KT P6SM BKN005
FM250300 32007KT P6SM BKN004
FM250900 VRB03KT 4SM BR BKN004
FM251600 VRB03KT P6SM FEW005
FM252000 30012KT P6SM SKC
KZOA FIR / North America



MET'MAP, your aeronautical weather chart ! - Copyright ORBIFLY December 2007 - Disclaimer

ORBIFLY MET'MAP TEAM :

Programming & Development : Alexandra Zaïnal
Original concept : Baudouin d'Aumeries
Technical & hardware support : Manuel Goepfert
Assistance : Marc-Olivier Méhu




SOURCES & CREDITS :

   NOAA       Earth
Advisory